Time;durP1;ratioP1;P1;durP2;ratioP2;P2;SDS_P1;SDS_P2;PMS_P1;PMS_P2;Temp;Humidity;BMP_temperature;BMP_pressure;BME280_temperature;BME280_humidity;BME280_pressure;Samples;Min_cycle;Max_cycle;Signal;HPM_P1;HPM_P2
2023/05/13 00:02:28;;;;;;;3.43;3.10;;;;;;;13.47;53.81;99832.75;10264448;28;20266;-68
2023/05/13 00:07:30;;;;;;;3.33;3.03;;;;;;;12.95;54.66;99807.31;10262967;28;20242;-68
2023/05/13 00:12:32;;;;;;;3.50;3.20;;;;;;;13.96;53.40;99857.69;10269096;28;20318;-68
2023/05/13 00:17:33;;;;;;;3.60;3.00;;;;;;;13.45;53.51;99837.53;10268162;28;20234;-68
2023/05/13 00:22:35;;;;;;;3.70;3.30;;;;;;;13.01;54.65;99825.31;10269571;28;20325;-68
2023/05/13 00:27:37;;;;;;;4.97;3.30;;;;;;;13.49;53.77;99844.13;10271813;28;20273;-68
2023/05/13 00:32:38;;;;;;;3.93;2.70;;;;;;;14.95;50.36;99859.53;10269622;28;20254;-68
2023/05/13 00:37:40;;;;;;;2.90;2.70;;;;;;;13.23;53.39;99809.91;10267264;28;20230;-68
2023/05/13 00:42:42;;;;;;;4.10;3.73;;;;;;;13.61;52.74;99858.63;10270264;28;20249;-68
2023/05/13 00:47:44;;;;;;;3.33;3.07;;;;;;;12.99;53.33;99813.94;10241133;28;20785;-68
2023/05/13 00:52:48;;;;;;;3.80;3.00;;;;;;;14.27;52.22;99864.34;10269891;28;20301;-69
2023/05/13 00:57:50;;;;;;;3.50;3.20;;;;;;;13.26;52.27;99802.28;10270967;28;20273;-68
2023/05/13 01:03:16;;;;;;;3.77;2.97;;;;;;;14.17;51.20;99854.00;10267863;28;20246;-69
2023/05/13 01:08:46;;;;;;;3.17;2.70;;;;;;;15.19;48.78;99843.69;10268260;28;20239;-68
2023/05/13 01:13:54;;;;;;;3.43;3.13;;;;;;;15.39;48.95;99867.88;10270210;28;20231;-69
2023/05/13 01:19:00;;;;;;;3.30;3.00;;;;;;;15.22;48.69;99874.78;10269526;28;20235;-68
2023/05/13 01:24:02;;;;;;;3.67;3.37;;;;;;;13.68;50.93;99804.88;10270475;28;20230;-69
2023/05/13 01:29:04;;;;;;;2.93;2.70;;;;;;;14.82;49.90;99881.13;10268500;28;20280;-68
2023/05/13 01:34:09;;;;;;;3.93;2.73;;;;;;;14.83;49.74;99877.41;10269029;28;20234;-68
2023/05/13 01:39:12;;;;;;;3.00;2.80;;;;;;;13.27;50.70;99747.50;10269539;28;20245;-68
2023/05/13 01:44:14;;;;;;;3.33;3.07;;;;;;;14.31;50.47;99871.81;10268147;28;20235;-68
2023/05/13 01:49:16;;;;;;;3.10;2.80;;;;;;;15.10;49.03;99861.13;10270012;28;20324;-68
2023/05/13 01:54:18;;;;;;;3.40;3.10;;;;;;;13.83;50.98;99847.72;10269316;28;20230;-68
2023/05/13 01:59:20;;;;;;;4.17;2.97;;;;;;;15.41;48.25;99870.34;10267667;28;20252;-68
2023/05/13 02:04:21;;;;;;;3.77;3.10;;;;;;;14.51;50.28;99885.28;10266319;28;20235;-68
2023/05/13 02:09:23;;;;;;;4.60;3.60;;;;;;;14.44;50.38;99886.31;10298982;28;20246;-68
2023/05/13 02:14:25;;;;;;;4.70;3.57;;;;;;;14.89;49.14;99862.25;10265039;28;20311;-69
2023/05/13 02:19:26;;;;;;;3.67;3.37;;;;;;;15.27;49.13;99869.59;10268996;28;20242;-68
2023/05/13 02:24:29;;;;;;;4.60;3.80;;;;;;;14.75;49.44;99873.00;10266077;28;20970;-69
2023/05/13 02:29:31;;;;;;;4.47;4.07;;;;;;;14.84;49.41;99870.94;10267255;28;20348;-68
2023/05/13 02:34:33;;;;;;;4.97;3.53;;;;;;;13.97;50.36;99844.03;10265599;28;20226;-68
2023/05/13 02:39:34;;;;;;;4.50;3.67;;;;;;;11.36;54.81;99573.56;10268685;28;20233;-69
2023/05/13 02:44:36;;;;;;;4.10;3.70;;;;;;;13.13;51.87;99814.81;10266026;28;20306;-68
2023/05/13 02:49:38;;;;;;;5.23;3.40;;;;;;;12.69;52.27;99763.22;10267098;28;20234;-68
2023/05/13 02:54:39;;;;;;;5.53;3.70;;;;;;;12.68;52.19;99780.34;10262854;28;20230;-68
2023/05/13 02:59:41;;;;;;;5.03;3.53;;;;;;;13.28;51.95;99843.25;10263715;28;20365;-68
2023/05/13 03:04:43;;;;;;;4.10;3.67;;;;;;;13.00;52.06;99820.97;10262317;28;20871;-68
2023/05/13 03:09:44;;;;;;;4.77;3.53;;;;;;;12.50;53.82;99799.63;10264667;28;20235;-68
2023/05/13 03:14:46;;;;;;;4.60;4.20;;;;;;;12.11;54.17;99750.81;10263757;28;20286;-68
2023/05/13 03:19:47;;;;;;;5.23;4.73;;;;;;;14.40;50.36;99869.75;10262340;28;20265;-68
2023/05/13 03:24:49;;;;;;;6.70;4.67;;;;;;;14.03;51.56;99853.94;10264339;28;20230;-68
2023/05/13 03:29:50;;;;;;;6.43;5.20;;;;;;;13.16;52.85;99852.03;10265241;28;20959;-68
2023/05/13 03:34:52;;;;;;;4.93;4.40;;;;;;;13.79;51.19;99850.00;10264565;28;20223;-69
2023/05/13 03:39:54;;;;;;;5.37;4.87;;;;;;;12.59;52.17;99782.34;10264667;28;20246;-68
2023/05/13 03:44:59;;;;;;;5.67;4.93;;;;;;;12.08;53.70;99753.06;10266492;28;20231;-68
2023/05/13 03:50:00;;;;;;;7.20;5.73;;;;;;;12.70;52.78;99837.34;10272254;28;20238;-68
2023/05/13 03:55:02;;;;;;;6.67;5.43;;;;;;;11.93;53.94;99756.69;10273997;28;20235;-69
2023/05/13 04:00:04;;;;;;;7.43;5.60;;;;;;;12.69;52.44;99835.69;10270857;28;20231;-68
2023/05/13 04:05:08;;;;;;;7.70;5.60;;;;;;;13.27;52.12;99879.16;10270976;28;20238;-68
2023/05/13 04:10:10;;;;;;;5.93;5.33;;;;;;;13.80;50.67;99889.31;10271589;28;20239;-68
2023/05/13 04:15:15;;;;;;;6.80;5.93;;;;;;;12.53;53.97;99863.66;10270560;28;20584;-68
2023/05/13 04:20:17;;;;;;;6.20;5.60;;;;;;;13.59;51.85;99890.28;10270594;28;20235;-68
2023/05/13 04:25:19;;;;;;;5.73;5.20;;;;;;;12.91;52.89;99893.66;10270724;28;20293;-69
2023/05/13 04:30:20;;;;;;;5.93;4.73;;;;;;;12.97;52.30;99891.22;10267773;28;20734;-68
2023/05/13 04:35:23;;;;;;;5.50;5.00;;;;;;;13.64;50.68;99887.81;10267965;28;20231;-69
2023/05/13 04:40:25;;;;;;;5.37;4.87;;;;;;;14.13;50.11;99917.34;10269630;28;20239;-68
2023/05/13 04:45:27;;;;;;;5.93;4.90;;;;;;;14.12;50.35;99918.38;10271923;28;20261;-68
2023/05/13 04:50:28;;;;;;;7.60;5.00;;;;;;;12.12;52.96;99821.41;10266779;28;20242;-68
2023/05/13 04:55:30;;;;;;;5.93;4.67;;;;;;;12.52;53.28;99894.22;10270817;28;20245;-68
2023/05/13 05:00:32;;;;;;;5.63;4.80;;;;;;;11.59;54.99;99819.03;10271315;28;20349;-68
2023/05/13 05:05:34;;;;;;;5.93;5.33;;;;;;;11.68;55.88;99854.63;10266504;28;20318;-68
2023/05/13 05:10:36;;;;;;;6.47;5.80;;;;;;;12.29;53.70;99897.09;10269429;28;20246;-68
2023/05/13 05:15:37;;;;;;;5.80;5.20;;;;;;;11.42;54.74;99819.28;10269430;28;20227;-68
2023/05/13 05:20:39;;;;;;;6.43;5.50;;;;;;;12.87;52.16;99918.41;10265188;28;20326;-68
2023/05/13 05:25:41;;;;;;;6.10;5.50;;;;;;;12.38;52.51;99893.22;10269023;28;20234;-70
2023/05/13 05:30:43;;;;;;;5.10;4.60;;;;;;;13.65;51.33;99943.25;10269003;28;20246;-67
2023/05/13 05:35:44;;;;;;;5.30;4.80;;;;;;;13.72;51.63;99951.34;10265645;28;20239;-66
2023/05/13 05:40:47;;;;;;;6.07;4.57;;;;;;;14.61;50.28;99957.56;10267742;28;20235;-67
2023/05/13 05:45:48;;;;;;;4.90;4.37;;;;;;;13.32;52.31;99964.59;10267110;28;20321;-67
2023/05/13 05:50:50;;;;;;;4.50;4.10;;;;;;;12.57;52.44;99890.94;10266391;28;20262;-67
2023/05/13 05:55:51;;;;;;;4.47;4.07;;;;;;;14.75;50.51;99961.91;10266280;28;20249;-66
2023/05/13 06:00:53;;;;;;;6.33;4.43;;;;;;;14.72;50.23;99958.78;10267203;28;20242;-66
2023/05/13 06:05:55;;;;;;;7.57;5.87;;;;;;;13.29;51.29;99949.72;10264382;28;20242;-66
2023/05/13 06:10:57;;;;;;;6.67;4.23;;;;;;;14.93;49.53;99958.63;10268017;28;20618;-67
2023/05/13 06:15:58;;;;;;;5.90;5.03;;;;;;;13.75;51.12;99974.31;10268100;28;20698;-67
2023/05/13 06:21:00;;;;;;;4.83;4.07;;;;;;;13.11;51.22;99933.25;10242522;28;22108;-66
2023/05/13 06:26:02;;;;;;;4.40;4.00;;;;;;;13.59;50.23;99948.59;10265706;28;20238;-66
2023/05/13 06:31:03;;;;;;;4.37;3.80;;;;;;;14.20;49.66;99956.66;10265625;28;20226;-67
2023/05/13 06:36:06;;;;;;;4.50;4.00;;;;;;;14.57;49.40;99977.84;10266952;28;20290;-67
2023/05/13 06:41:07;;;;;;;7.63;4.17;;;;;;;14.77;48.84;99975.97;10266046;28;20234;-68
2023/05/13 06:46:09;;;;;;;3.67;3.37;;;;;;;15.04;47.61;99945.53;10265023;28;20242;-67
2023/05/13 06:51:10;;;;;;;7.53;3.60;;;;;;;13.98;47.70;99921.00;10225511;28;20235;-67
2023/05/13 06:56:12;;;;;;;3.80;3.50;;;;;;;15.82;45.89;99985.13;10229142;28;20262;-70
2023/05/13 07:01:15;;;;;;;4.90;3.47;;;;;;;15.98;46.98;99997.34;10264215;28;20245;-67
2023/05/13 07:06:16;;;;;;;3.93;3.63;;;;;;;13.95;47.81;99926.81;10262672;28;20291;-67
2023/05/13 07:11:18;;;;;;;4.47;3.43;;;;;;;15.08;47.21;99973.72;10261970;28;20273;-69
2023/05/13 07:16:20;;;;;;;4.67;3.30;;;;;;;15.78;46.59;99973.13;10261966;28;20335;-68
2023/05/13 07:21:21;;;;;;;3.27;3.07;;;;;;;16.28;45.80;99991.34;10267706;28;20238;-68
2023/05/13 07:26:23;;;;;;;5.37;3.33;;;;;;;16.46;46.23;99975.25;10272856;28;20249;-67
2023/05/13 07:31:24;;;;;;;4.00;3.57;;;;;;;16.01;46.31;99949.13;10269928;28;20242;-68
2023/05/13 07:36:26;;;;;;;3.60;2.90;;;;;;;16.33;45.69;99978.03;10265350;28;20844;-68
2023/05/13 07:41:28;;;;;;;3.63;3.30;;;;;;;14.08;48.04;99899.13;10272592;28;20266;-68
2023/05/13 07:46:30;;;;;;;4.80;3.40;;;;;;;16.36;45.32;99964.91;10272655;28;20238;-68
2023/05/13 07:51:32;;;;;;;4.00;3.53;;;;;;;15.07;47.12;99966.69;10272682;28;20330;-68
2023/05/13 07:56:34;;;;;;;3.43;3.13;;;;;;;16.44;45.76;99951.16;10268332;28;20936;-68
2023/05/13 08:01:36;;;;;;;3.50;3.20;;;;;;;15.46;46.55;99959.53;10272195;28;20634;-67
2023/05/13 08:06:37;;;;;;;3.30;3.00;;;;;;;15.43;46.43;99970.72;10268929;28;20231;-68
2023/05/13 08:11:40;;;;;;;3.17;2.93;;;;;;;16.39;45.07;99956.38;10270420;28;20293;-68
2023/05/13 08:16:42;;;;;;;3.67;3.37;;;;;;;15.54;45.66;99943.13;10269367;28;20864;-69
2023/05/13 08:21:44;;;;;;;3.60;3.13;;;;;;;16.10;45.21;99927.28;10267580;28;21473;-68
2023/05/13 08:26:46;;;;;;;4.33;3.37;;;;;;;16.02;44.58;99921.09;10265816;28;20246;-67
2023/05/13 08:31:49;;;;;;;4.03;3.60;;;;;;;16.35;45.11;99930.06;10265893;28;20262;-68
2023/05/13 08:36:50;;;;;;;3.63;3.30;;;;;;;14.66;46.63;99911.13;10267440;28;20247;-68
2023/05/13 08:41:56;;;;;;;3.33;3.00;;;;;;;15.83;45.46;99949.03;10270916;28;20740;-68
2023/05/13 08:47:14;;;;;;;3.30;3.00;;;;;;;14.84;45.73;99938.28;10268282;28;20788;-68
2023/05/13 08:52:17;;;;;;;3.73;3.40;;;;;;;15.88;44.94;99968.91;10263378;28;20399;-68
2023/05/13 08:57:19;;;;;;;3.60;2.90;;;;;;;16.93;44.07;99948.66;10268005;28;20608;-68
2023/05/13 09:02:22;;;;;;;3.47;3.13;;;;;;;17.33;44.27;99966.38;10261880;28;20657;-68
2023/05/13 09:07:23;;;;;;;5.03;3.43;;;;;;;15.98;45.10;99936.06;10265117;28;20251;-68
2023/05/13 09:12:54;;;;;;;3.13;2.83;;;;;;;16.93;44.51;99918.09;10295986;28;20238;-68
2023/05/13 09:18:04;;;;;;;3.53;3.23;;;;;;;16.61;45.02;99910.09;10265208;28;20241;-69
2023/05/13 09:23:08;;;;;;;5.80;3.33;;;;;;;17.44;43.62;99940.44;10269777;28;20242;-69
2023/05/13 09:28:13;;;;;;;4.37;3.30;;;;;;;17.42;44.25;99919.03;10266018;28;20273;-68
2023/05/13 09:33:18;;;;;;;4.23;3.83;;;;;;;17.31;44.20;99917.94;10267798;28;20250;-68
2023/05/13 09:38:25;;;;;;;3.60;3.30;;;;;;;18.10;42.78;99911.69;10263882;28;20746;-68
2023/05/13 09:43:31;;;;;;;8.40;3.50;;;;;;;17.35;43.89;99897.47;10268304;28;20250;-68
2023/05/13 09:48:33;;;;;;;5.33;3.10;;;;;;;16.65;44.63;99905.06;10264976;28;20238;-69
2023/05/13 09:53:35;;;;;;;4.73;3.00;;;;;;;17.39;43.93;99914.06;10265335;28;20793;-68
2023/05/13 09:58:37;;;;;;;3.37;2.87;;;;;;;17.20;43.87;99907.03;10263465;28;20239;-68
2023/05/13 10:03:38;;;;;;;4.53;3.07;;;;;;;18.28;42.67;99889.13;10266505;28;20243;-68
2023/05/13 10:08:41;;;;;;;2.80;2.60;;;;;;;17.06;44.50;99880.16;10266784;28;20234;-68
2023/05/13 10:13:48;;;;;;;13.90;11.17;;;;;;;16.99;44.81;99890.22;10268251;28;20246;-68
2023/05/13 10:18:51;;;;;;;17.57;12.67;;;;;;;18.21;42.80;99872.97;10260248;28;20235;-69
2023/05/13 10:23:54;;;;;;;4.93;4.23;;;;;;;18.00;43.24;99868.09;10263471;28;20245;-69
2023/05/13 10:28:56;;;;;;;2.97;2.77;;;;;;;16.95;43.51;99862.78;10257382;28;20865;-68
2023/05/13 10:33:58;;;;;;;2.90;2.70;;;;;;;16.23;45.01;99836.22;10261811;28;20857;-68
2023/05/13 10:39:28;;;;;;;3.10;2.90;;;;;;;17.77;42.68;99849.94;10263596;28;20752;-69
2023/05/13 10:44:32;;;;;;;3.83;3.20;;;;;;;16.86;43.79;99814.66;10261651;28;20230;-68
2023/05/13 10:49:35;;;;;;;3.50;3.20;;;;;;;17.21;44.45;99860.84;10263161;28;20737;-68
2023/05/13 10:54:39;;;;;;;3.70;3.00;;;;;;;17.69;43.18;99821.31;10264570;28;20602;-67
2023/05/13 11:00:17;;;;;;;4.13;2.87;;;;;;;16.54;44.29;99798.59;10259742;28;20285;-67
2023/05/13 11:06:38;;;;;;;2.93;2.60;;;;;;;15.65;47.51;99890.38;10456557;27;21506;-67
2023/05/13 11:11:40;;;;;;;3.40;3.10;;;;;;;15.33;47.26;99884.91;10367923;28;20294;-69
2023/05/13 11:17:03;;;;;;;3.47;2.93;;;;;;;16.21;47.04;99875.28;10384780;28;20244;-68
2023/05/13 11:22:11;;;;;;;3.47;3.17;;;;;;;16.47;46.28;99852.66;10389729;28;20232;-68
2023/05/13 11:27:18;;;;;;;3.03;2.73;;;;;;;15.41;46.94;99816.44;10386753;28;20715;-70
2023/05/13 11:32:51;;;;;;;3.07;2.73;;;;;;;16.98;45.40;99845.31;10385392;28;20912;-69
2023/05/13 11:37:58;;;;;;;3.40;3.10;;;;;;;16.91;44.49;99817.50;10385362;28;20649;-69
2023/05/13 11:43:03;;;;;;;3.00;2.80;;;;;;;16.29;46.29;99850.75;10386036;28;20278;-70
2023/05/13 11:48:22;;;;;;;2.97;2.77;;;;;;;16.84;45.17;99858.13;10385338;28;20229;-69
2023/05/13 11:53:23;;;;;;;2.50;2.30;;;;;;;15.96;45.78;99818.56;10387106;28;20673;-70
2023/05/13 11:58:25;;;;;;;2.83;2.60;;;;;;;15.90;46.01;99855.38;10380597;28;20577;-70
2023/05/13 12:03:26;;;;;;;2.70;2.50;;;;;;;16.86;44.53;99826.28;10383061;28;20255;-69
2023/05/13 12:08:28;;;;;;;3.50;2.60;;;;;;;15.98;45.34;99797.63;10384281;28;20229;-69
2023/05/13 12:13:30;;;;;;;2.83;2.40;;;;;;;17.05;44.60;99808.22;10379615;28;20332;-69
2023/05/13 12:18:33;;;;;;;2.60;2.27;;;;;;;16.58;44.96;99843.00;10357210;28;20237;-70
2023/05/13 12:23:39;;;;;;;7.87;2.70;;;;;;;16.32;44.45;99834.09;10354668;28;20245;-69
2023/05/13 12:28:41;;;;;;;6.73;2.60;;;;;;;16.38;44.78;99848.59;10355653;28;20248;-70
2023/05/13 12:33:45;;;;;;;3.20;2.80;;;;;;;15.95;45.49;99833.13;10363897;28;20646;-70
2023/05/13 12:39:04;;;;;;;2.83;2.60;;;;;;;16.47;45.31;99854.56;10355377;28;20271;-69
2023/05/13 12:44:15;;;;;;;3.73;2.57;;;;;;;17.35;44.29;99837.16;10356653;28;20316;-70
2023/05/13 12:49:16;;;;;;;3.57;2.20;;;;;;;16.54;44.85;99815.59;10359497;28;20667;-69
2023/05/13 12:54:18;;;;;;;2.70;2.50;;;;;;;16.99;44.15;99828.88;10354759;28;20260;-70
2023/05/13 12:59:20;;;;;;;2.50;2.37;;;;;;;16.95;44.19;99808.72;10357693;28;20240;-70
2023/05/13 13:04:22;;;;;;;2.47;2.23;;;;;;;18.10;42.79;99803.38;10353193;28;20245;-69
2023/05/13 13:09:23;;;;;;;3.07;2.80;;;;;;;17.57;43.24;99807.72;10352586;28;20720;-70
2023/05/13 13:14:25;;;;;;;4.97;2.97;;;;;;;16.33;44.65;99770.13;10354046;28;20229;-69
2023/05/13 13:19:26;;;;;;;2.73;2.53;;;;;;;18.03;42.97;99795.38;10352514;28;20367;-69
2023/05/13 13:24:28;;;;;;;6.93;4.03;;;;;;;17.73;42.69;99785.47;10354060;28;20247;-70
2023/05/13 13:29:30;;;;;;;3.23;2.67;;;;;;;18.62;42.33;99784.56;10354014;28;20237;-69
2023/05/13 13:34:31;;;;;;;2.73;2.53;;;;;;;17.60;43.54;99787.50;10357867;28;20255;-69
2023/05/13 13:39:33;;;;;;;4.73;2.33;;;;;;;18.25;42.96;99795.63;10353793;28;20383;-68
2023/05/13 13:44:37;;;;;;;2.60;2.23;;;;;;;17.38;43.00;99782.63;10355542;28;20729;-69
2023/05/13 13:49:38;;;;;;;3.37;2.40;;;;;;;17.84;43.41;99791.94;10354232;28;20240;-69
2023/05/13 13:54:40;;;;;;;3.20;2.60;;;;;;;17.09;43.41;99747.25;10354314;28;20735;-70
2023/05/13 13:59:42;;;;;;;3.40;2.83;;;;;;;17.21;43.22;99754.56;10352535;28;20280;-67
2023/05/13 14:04:45;;;;;;;3.27;2.70;;;;;;;17.29;43.46;99771.31;10352521;28;20286;-67
2023/05/13 14:09:47;;;;;;;2.83;2.63;;;;;;;17.03;43.66;99731.94;10358451;28;20723;-67
2023/05/13 14:14:49;;;;;;;3.53;2.77;;;;;;;17.66;43.77;99762.25;10347236;28;20319;-67
2023/05/13 14:19:53;;;;;;;2.50;2.30;;;;;;;18.20;43.37;99745.94;10356729;28;20244;-67
2023/05/13 14:24:54;;;;;;;2.43;2.30;;;;;;;16.78;44.35;99722.00;10347678;28;20225;-68
2023/05/13 14:29:56;;;;;;;2.60;2.40;;;;;;;17.46;42.83;99713.81;10350138;28;20272;-68
2023/05/13 14:34:58;;;;;;;2.50;2.30;;;;;;;17.66;42.78;99754.13;10354052;28;20233;-67
2023/05/13 14:39:59;;;;;;;2.63;2.30;;;;;;;17.47;43.16;99735.25;10351093;28;20229;-67
2023/05/13 14:45:01;;;;;;;2.90;2.50;;;;;;;17.18;42.99;99721.53;10353070;28;20229;-68
2023/05/13 14:50:03;;;;;;;2.60;2.40;;;;;;;16.88;42.87;99699.88;10356269;28;20233;-68
2023/05/13 14:55:05;;;;;;;2.50;2.30;;;;;;;17.54;42.70;99740.53;10349536;28;20221;-66
2023/05/13 15:00:07;;;;;;;2.40;2.20;;;;;;;17.53;42.89;99703.75;10353091;28;20743;-68
2023/05/13 15:05:10;;;;;;;2.50;2.30;;;;;;;17.31;42.79;99703.47;10357461;28;20363;-68
2023/05/13 15:10:11;;;;;;;4.05;2.38;;;;;;;17.10;42.90;99721.03;10369304;28;20622;-68
2023/05/13 15:15:13;;;;;;;2.20;2.00;;;;;;;17.71;42.58;99700.97;10356333;28;20711;-67
2023/05/13 15:20:15;;;;;;;2.55;2.30;;;;;;;17.60;42.79;99698.22;10354465;28;20769;-68
2023/05/13 15:25:16;;;;;;;3.13;2.30;;;;;;;18.04;42.41;99723.94;10361627;28;20241;-67
2023/05/13 15:30:18;;;;;;;3.10;2.10;;;;;;;17.41;42.86;99692.06;10349457;28;20236;-66
2023/05/13 15:35:20;;;;;;;2.27;2.07;;;;;;;17.80;42.64;99697.91;10355046;28;20727;-68
2023/05/13 15:40:22;;;;;;;2.60;2.40;;;;;;;18.26;42.70;99707.09;10350894;28;20237;-67
2023/05/13 15:45:24;;;;;;;2.50;2.30;;;;;;;16.87;43.61;99646.03;10349963;28;20229;-68
2023/05/13 15:50:26;;;;;;;2.93;2.50;;;;;;;18.00;43.29;99679.44;10359049;28;20224;-68
2023/05/13 15:55:28;;;;;;;2.60;2.38;;;;;;;18.28;42.69;99678.72;10360446;28;20229;-67
2023/05/13 16:00:30;;;;;;;2.97;2.70;;;;;;;18.81;42.54;99665.97;10356029;28;20237;-65
2023/05/13 16:05:32;;;;;;;3.03;2.28;;;;;;;18.50;42.33;99653.69;10356568;28;20712;-66
2023/05/13 16:10:34;;;;;;;1.90;1.80;;;;;;;18.00;43.18;99670.47;10363002;28;20742;-67
2023/05/13 16:15:36;;;;;;;2.42;2.25;;;;;;;18.87;41.60;99653.31;10360710;28;20225;-68
2023/05/13 16:20:38;;;;;;;2.17;2.08;;;;;;;18.67;42.25;99663.78;10364097;28;20287;-68
2023/05/13 16:25:40;;;;;;;3.60;2.03;;;;;;;19.15;41.03;99632.69;10366346;28;20230;-68
2023/05/13 16:30:43;;;;;;;3.83;1.75;;;;;;;18.14;41.75;99633.16;10366481;28;20325;-66
2023/05/13 16:35:44;;;;;;;2.17;2.08;;;;;;;19.22;41.23;99641.50;10359883;28;20244;-69
2023/05/13 16:40:46;;;;;;;2.58;1.90;;;;;;;18.80;41.51;99653.47;10362636;28;20229;-66
2023/05/13 16:45:47;;;;;;;4.43;2.25;;;;;;;17.46;42.55;99625.41;10361253;28;20229;-69
2023/05/13 16:50:50;;;;;;;2.40;2.20;;;;;;;17.87;42.16;99676.97;10359737;28;20244;-69
2023/05/13 16:55:52;;;;;;;2.10;2.00;;;;;;;17.90;41.82;99676.50;10361607;28;20233;-66
2023/05/13 17:00:53;;;;;;;2.40;2.20;;;;;;;18.39;41.56;99647.25;10360566;28;20232;-68
2023/05/13 17:05:59;;;;;;;2.30;2.10;;;;;;;17.70;42.16;99655.22;10360511;28;20288;-66
2023/05/13 17:11:01;;;;;;;2.10;2.00;;;;;;;17.75;41.99;99649.06;10359641;28;20247;-66
2023/05/13 17:16:03;;;;;;;2.53;2.33;;;;;;;18.40;41.44;99643.47;10367729;28;20823;-68
2023/05/13 17:21:04;;;;;;;2.03;1.93;;;;;;;17.65;42.64;99652.38;10356190;28;20492;-65
2023/05/13 17:26:06;;;;;;;2.70;2.47;;;;;;;17.94;41.92;99657.91;10361092;28;20231;-68
2023/05/13 17:31:08;;;;;;;2.30;2.10;;;;;;;17.63;42.51;99638.25;10352867;28;20742;-68
2023/05/13 17:36:09;;;;;;;2.50;2.30;;;;;;;17.99;42.38;99675.09;10370616;28;20215;-68
2023/05/13 17:41:11;;;;;;;2.43;2.23;;;;;;;18.69;41.04;99659.75;10361921;28;20248;-67
2023/05/13 17:46:13;;;;;;;2.70;2.50;;;;;;;17.79;42.24;99653.78;10362737;28;20609;-67
2023/05/13 17:51:14;;;;;;;2.67;2.13;;;;;;;18.68;41.64;99658.13;10366216;28;20719;-68
2023/05/13 17:56:16;;;;;;;2.40;2.20;;;;;;;17.65;42.74;99638.84;10363608;28;20216;-68
2023/05/13 18:01:20;;;;;;;2.80;2.60;;;;;;;17.94;41.96;99653.31;10364491;28;20240;-67
2023/05/13 18:06:22;;;;;;;2.63;2.40;;;;;;;18.71;41.02;99651.38;10362452;28;20233;-66
2023/05/13 18:11:23;;;;;;;3.40;2.47;;;;;;;18.51;41.51;99668.06;10367512;28;20245;-66
2023/05/13 18:16:25;;;;;;;2.47;2.27;;;;;;;18.45;41.33;99632.75;10358923;28;20343;-66
2023/05/13 18:21:28;;;;;;;2.57;2.37;;;;;;;18.23;41.94;99672.34;10365761;28;20247;-66
2023/05/13 18:26:29;;;;;;;3.10;2.80;;;;;;;17.92;42.59;99672.50;10365829;28;20263;-67
2023/05/13 18:31:33;;;;;;;3.10;2.60;;;;;;;18.23;42.15;99658.81;10364581;28;20318;-65
2023/05/13 18:36:35;;;;;;;2.90;2.70;;;;;;;18.30;41.78;99674.97;10360049;28;20661;-67
2023/05/13 18:41:36;;;;;;;3.10;2.90;;;;;;;18.84;41.45;99691.75;10360957;28;20237;-68
2023/05/13 18:46:38;;;;;;;3.10;2.80;;;;;;;17.72;42.87;99696.38;10362353;28;20241;-68
2023/05/13 18:51:40;;;;;;;2.57;2.43;;;;;;;16.58;44.28;99662.88;10368654;28;20663;-67
2023/05/13 18:56:42;;;;;;;2.70;2.50;;;;;;;18.07;42.75;99682.84;10359431;28;20240;-67
2023/05/13 19:01:44;;;;;;;2.90;2.70;;;;;;;17.94;42.95;99714.75;10363873;28;20244;-67
2023/05/13 19:06:46;;;;;;;3.27;2.97;;;;;;;18.40;42.05;99700.34;10354481;28;20779;-67
2023/05/13 19:11:48;;;;;;;2.73;2.53;;;;;;;18.01;41.89;99710.84;10356532;28;20229;-67
2023/05/13 19:16:50;;;;;;;2.73;2.53;;;;;;;18.44;41.51;99731.34;10354522;28;20243;-66
2023/05/13 19:21:52;;;;;;;3.20;3.00;;;;;;;18.51;41.54;99731.22;10357070;28;20243;-66
2023/05/13 19:26:54;;;;;;;2.83;2.53;;;;;;;18.64;41.56;99752.63;10358000;28;20240;-77
2023/05/13 19:31:55;;;;;;;2.83;2.57;;;;;;;18.07;42.40;99747.81;10357694;28;20243;-66
2023/05/13 19:36:57;;;;;;;4.87;3.20;;;;;;;17.37;43.78;99751.22;10360347;28;20722;-67
2023/05/13 19:41:59;;;;;;;3.40;3.10;;;;;;;16.21;45.26;99714.16;10358053;28;20241;-68
2023/05/13 19:47:01;;;;;;;3.20;2.90;;;;;;;17.08;44.74;99769.91;10359984;28;20752;-65
2023/05/13 19:52:03;;;;;;;3.87;3.57;;;;;;;14.97;47.84;99681.50;10366058;28;20234;-64
2023/05/13 19:57:05;;;;;;;4.97;3.73;;;;;;;16.37;45.14;99741.63;10361011;28;20233;-65
2023/05/13 20:02:07;;;;;;;4.20;3.47;;;;;;;16.18;45.42;99752.38;10364349;28;20245;-67
2023/05/13 20:07:09;;;;;;;3.60;3.30;;;;;;;16.85;44.99;99767.88;10362883;28;20716;-65
2023/05/13 20:12:10;;;;;;;5.17;3.40;;;;;;;16.06;46.20;99775.72;10358480;28;20631;-66
2023/05/13 20:17:17;;;;;;;3.90;3.50;;;;;;;17.29;44.28;99744.25;10357413;28;20832;-65
2023/05/13 20:22:19;;;;;;;4.43;3.50;;;;;;;16.86;45.02;99793.84;10359530;28;20248;-64
2023/05/13 20:27:21;;;;;;;3.90;3.60;;;;;;;17.35;44.30;99773.06;10361313;28;20237;-65
2023/05/13 20:32:25;;;;;;;4.10;3.50;;;;;;;17.80;43.68;99746.63;10357675;28;20229;-66
2023/05/13 20:37:28;;;;;;;4.57;3.67;;;;;;;15.21;47.39;99709.53;10356835;28;20229;-67
2023/05/13 20:42:29;;;;;;;3.33;3.03;;;;;;;16.91;44.99;99758.88;10360139;28;20250;-67
2023/05/13 20:47:31;;;;;;;4.00;3.60;;;;;;;17.08;45.33;99785.31;10358397;28;20899;-66
2023/05/13 20:52:33;;;;;;;4.40;4.00;;;;;;;16.50;45.78;99768.50;10358780;28;20240;-66
2023/05/13 20:57:34;;;;;;;3.63;3.33;;;;;;;14.19;48.72;99605.19;10360446;28;20247;-66
2023/05/13 21:02:36;;;;;;;3.77;3.37;;;;;;;15.62;48.40;99791.00;10361946;28;20241;-67
2023/05/13 21:07:38;;;;;;;3.60;3.30;;;;;;;14.94;48.73;99766.25;10356492;28;20316;-67
2023/05/13 21:12:40;;;;;;;3.87;3.57;;;;;;;13.46;51.39;99664.44;10367429;28;20233;-67
2023/05/13 21:17:41;;;;;;;5.43;3.50;;;;;;;13.24;52.91;99706.78;10360924;28;20242;-65
2023/05/13 21:22:43;;;;;;;4.83;3.80;;;;;;;13.32;52.85;99738.03;10365288;28;20232;-66
2023/05/13 21:27:44;;;;;;;4.53;4.13;;;;;;;13.64;53.17;99771.38;10358435;28;20299;-66
2023/05/13 21:32:46;;;;;;;5.63;4.30;;;;;;;14.88;50.97;99768.97;10358537;28;20234;-67
2023/05/13 21:37:48;;;;;;;4.70;4.30;;;;;;;15.40;49.70;99766.25;10357975;28;20238;-67
2023/05/13 21:42:51;;;;;;;3.67;3.30;;;;;;;14.41;50.99;99793.34;10365367;28;20271;-65
2023/05/13 21:47:52;;;;;;;4.50;4.10;;;;;;;15.23;49.62;99798.28;10359448;28;20742;-66
2023/05/13 21:52:54;;;;;;;4.00;3.60;;;;;;;16.09;48.38;99772.59;10356946;28;20615;-68
2023/05/13 21:57:56;;;;;;;4.23;3.83;;;;;;;16.11;47.25;99766.97;10353498;28;20225;-67
2023/05/13 22:02:58;;;;;;;5.50;4.63;;;;;;;16.56;47.21;99748.69;10350978;28;20244;-67
2023/05/13 22:08:01;;;;;;;3.80;3.50;;;;;;;15.82;48.13;99799.78;10359643;28;20739;-67
2023/05/13 22:13:02;;;;;;;4.97;4.20;;;;;;;15.64;49.26;99813.19;10359902;28;20247;-68
2023/05/13 22:18:04;;;;;;;5.13;4.37;;;;;;;15.23;50.21;99811.75;10353774;28;20602;-66
2023/05/13 22:23:06;;;;;;;5.07;4.40;;;;;;;14.89;50.78;99817.25;10359184;28;21027;-67
2023/05/13 22:28:08;;;;;;;4.80;4.30;;;;;;;15.04;50.24;99802.72;10357576;28;20574;-66
2023/05/13 22:33:10;;;;;;;5.97;4.70;;;;;;;14.51;51.33;99793.72;10355817;28;20240;-68
2023/05/13 22:38:11;;;;;;;5.43;4.47;;;;;;;13.24;53.69;99737.13;10356838;28;20253;-68
2023/05/13 22:43:13;;;;;;;4.93;4.53;;;;;;;14.15;52.30;99816.53;10354935;28;20233;-68
2023/05/13 22:48:15;;;;;;;10.23;5.10;;;;;;;14.02;52.45;99801.19;10359461;28;20225;-68
2023/05/13 22:53:17;;;;;;;5.67;4.63;;;;;;;14.30;52.56;99804.72;10361218;28;20233;-70
2023/05/13 22:58:19;;;;;;;5.00;4.50;;;;;;;13.62;53.55;99789.59;10354684;28;20237;-70
2023/05/13 23:03:21;;;;;;;5.70;4.67;;;;;;;13.90;53.51;99805.50;10358397;28;20239;-70
2023/05/13 23:08:23;;;;;;;5.03;4.53;;;;;;;14.68;51.95;99798.66;10360605;28;20252;-70
2023/05/13 23:13:24;;;;;;;5.30;4.80;;;;;;;15.08;50.71;99785.06;10356077;28;20235;-71
2023/05/13 23:18:26;;;;;;;4.87;4.20;;;;;;;15.98;48.80;99752.56;10354997;28;20256;-71
2023/05/13 23:23:28;;;;;;;6.07;5.00;;;;;;;16.10;49.30;99771.56;10362111;28;20244;-70
2023/05/13 23:28:29;;;;;;;6.30;4.70;;;;;;;17.19;47.25;99773.72;10356960;28;20295;-70